createdAt,value
2019-02-21T00:00:58.720Z,101620.36
2019-02-21T00:02:06.700Z,101628.05
2019-02-21T00:03:10.487Z,101623.41
2019-02-21T00:04:14.138Z,101620.66
2019-02-21T00:05:17.614Z,101629.72
2019-02-21T00:06:21.118Z,101621.77
2019-02-21T00:07:24.667Z,101625.34
2019-02-21T00:08:28.173Z,101623.15
2019-02-21T00:09:31.692Z,101623.97
2019-02-21T00:10:35.178Z,101625.05
2019-02-21T00:11:38.699Z,101621.48
2019-02-21T00:12:42.464Z,101621.77
2019-02-21T00:13:46.046Z,101628.65
2019-02-21T00:14:49.626Z,101633.30
2019-02-21T00:15:53.203Z,101629.47
2019-02-21T00:16:57.234Z,101632.22
2019-02-21T00:18:00.749Z,101629.47
2019-02-21T00:19:04.332Z,101632.22
2019-02-21T00:20:07.989Z,101633.59
2019-02-21T00:21:11.584Z,101632.52
2019-02-21T00:22:15.162Z,101628.95
2019-02-21T00:23:18.729Z,101629.52
2019-02-21T00:24:22.253Z,101630.89
2019-02-21T00:25:25.734Z,101628.14
2019-02-21T00:26:29.244Z,101629.52
2019-02-21T00:27:32.804Z,101620.44
2019-02-21T00:28:36.380Z,101627.58
2019-02-21T00:29:39.899Z,101626.50
2019-02-21T00:30:43.382Z,101629.25
2019-02-21T00:31:46.899Z,101631.44
2019-02-21T00:32:50.405Z,101632.81
2019-02-21T00:33:53.875Z,101623.49
2019-02-21T00:34:57.487Z,101625.12
2019-02-21T00:36:01.002Z,101624.87
2019-02-21T00:37:04.605Z,101624.05
2019-02-21T00:38:08.186Z,101622.67
2019-02-21T00:39:11.694Z,101621.04
2019-02-21T00:40:15.235Z,101622.41
2019-02-21T00:41:18.725Z,101619.14
2019-02-21T00:42:22.272Z,101620.22
2019-02-21T00:43:25.960Z,101623.53
2019-02-21T00:44:29.444Z,101627.66
2019-02-21T00:45:33.051Z,101622.19
2019-02-21T00:46:36.544Z,101625.72
2019-02-21T00:47:40.042Z,101624.91
2019-02-21T00:48:43.574Z,101620.78
2019-02-21T00:49:47.062Z,101619.70
2019-02-21T00:50:50.567Z,101618.59
2019-02-21T00:51:54.142Z,101614.47
2019-02-21T00:52:57.630Z,101613.91
2019-02-21T00:54:01.193Z,101612.53
2019-02-21T00:55:06.447Z,101607.03
2019-02-21T00:56:09.978Z,101607.30
2019-02-21T00:57:13.496Z,101608.11
2019-02-21T00:58:17.004Z,101611.97
2019-02-21T00:59:20.489Z,101611.97
2019-02-21T01:00:24.052Z,101608.93
2019-02-21T01:01:27.668Z,101606.77
2019-02-21T01:02:31.254Z,101606.48
2019-02-21T01:03:34.842Z,101612.80
2019-02-21T01:04:38.414Z,101610.05
2019-02-21T01:05:41.910Z,101613.91
2019-02-21T01:06:45.437Z,101608.97
2019-02-21T01:07:49.001Z,101611.16
2019-02-21T01:08:52.562Z,101613.64
2019-02-21T01:09:56.066Z,101620.52
2019-02-21T01:10:59.628Z,101616.39
2019-02-21T01:12:03.143Z,101621.89
2019-02-21T01:13:06.810Z,101623.01
2019-02-21T01:14:10.341Z,101619.45
2019-02-21T01:15:13.881Z,101621.08
2019-02-21T01:16:17.411Z,101619.70
2019-02-21T01:17:20.932Z,101622.75
2019-02-21T01:18:24.421Z,101622.75
2019-02-21T01:19:27.991Z,101624.68
2019-02-21T01:20:31.481Z,101624.42
2019-02-21T01:21:34.974Z,101619.19
2019-02-21T01:22:38.587Z,101621.94
2019-02-21T01:23:42.080Z,101628.81
2019-02-21T01:24:45.573Z,101620.56
2019-02-21T01:25:49.143Z,101621.94
2019-02-21T01:26:52.639Z,101623.61
2019-02-21T01:27:56.161Z,101624.72
2019-02-21T01:28:59.656Z,101626.91
2019-02-21T01:30:03.217Z,101625.54
2019-02-21T01:31:06.713Z,101629.41
2019-02-21T01:32:10.205Z,101627.47
2019-02-21T01:33:13.792Z,101631.08
2019-02-21T01:34:17.375Z,101633.27
2019-02-21T01:35:20.856Z,101633.00
2019-02-21T01:36:24.439Z,101633.00
2019-02-21T01:37:28.002Z,101632.45
2019-02-21T01:38:31.529Z,101634.38
2019-02-21T01:39:35.038Z,101630.55
2019-02-21T01:40:38.537Z,101631.37
2019-02-21T01:41:42.098Z,101628.36
2019-02-21T01:42:45.691Z,101636.05
2019-02-21T01:43:49.218Z,101636.87
2019-02-21T01:44:52.773Z,101632.48
2019-02-21T01:45:56.337Z,101636.05
2019-02-21T01:46:59.841Z,101633.86
2019-02-21T01:48:03.406Z,101632.22
2019-02-21T01:49:06.919Z,101630.59
2019-02-21T01:50:10.762Z,101634.19
2019-02-21T01:51:17.294Z,101638.83
2019-02-21T01:52:20.814Z,101631.44
2019-02-21T01:53:24.310Z,101641.06
2019-02-21T01:54:27.850Z,101636.67
2019-02-21T01:55:31.428Z,101637.23
2019-02-21T01:56:34.929Z,101635.30
2019-02-21T01:57:38.435Z,101636.16
2019-02-21T01:58:41.934Z,101640.53
2019-02-21T01:59:45.466Z,101639.16
2019-02-21T02:00:49.023Z,101642.17
2019-02-21T02:01:52.528Z,101639.16
2019-02-21T02:02:56.035Z,101644.11
2019-02-21T02:03:59.530Z,101635.05
2019-02-21T02:05:03.043Z,101639.16
2019-02-21T02:06:06.530Z,101635.86
2019-02-21T02:07:10.107Z,101633.67
2019-02-21T02:08:13.664Z,101628.73
2019-02-21T02:09:17.553Z,101634.48
2019-02-21T02:10:21.159Z,101630.92
2019-02-21T02:11:24.686Z,101639.16
2019-02-21T02:12:28.162Z,101641.91
2019-02-21T02:13:31.753Z,101636.97
2019-02-21T02:14:35.332Z,101637.23
2019-02-21T02:15:38.835Z,101638.34
2019-02-21T02:16:42.420Z,101633.93
2019-02-21T02:17:45.967Z,101637.53
2019-02-21T02:18:49.526Z,101640.53
2019-02-21T02:19:53.067Z,101637.79
2019-02-21T02:20:56.656Z,101637.53
2019-02-21T02:22:00.362Z,101640.80
2019-02-21T02:23:03.922Z,101636.16
2019-02-21T02:24:07.555Z,101628.98
2019-02-21T02:25:11.253Z,101632.56
2019-02-21T02:26:14.888Z,101634.48
2019-02-21T02:27:18.470Z,101625.69
2019-02-21T02:28:22.044Z,101636.16
2019-02-21T02:29:25.519Z,101628.98
2019-02-21T02:30:29.100Z,101634.78
2019-02-21T02:31:32.683Z,101631.19
2019-02-21T02:32:36.292Z,101633.11
2019-02-21T02:33:40.165Z,101634.48
2019-02-21T02:34:43.647Z,101633.11
2019-02-21T02:35:47.225Z,101636.68
2019-02-21T02:36:50.750Z,101639.98
2019-02-21T02:37:54.515Z,101637.80
2019-02-21T02:38:58.090Z,101640.28
2019-02-21T02:40:01.605Z,101642.21
2019-02-21T02:41:05.140Z,101646.07
2019-02-21T02:42:08.730Z,101648.56
2019-02-21T02:43:12.279Z,101648.56
2019-02-21T02:44:15.863Z,101648.30
2019-02-21T02:45:19.442Z,101645.28
2019-02-21T02:46:23.013Z,101644.20
2019-02-21T02:47:26.554Z,101643.39
2019-02-21T02:48:30.104Z,101647.25
2019-02-21T02:49:33.669Z,101645.06
2019-02-21T02:50:37.179Z,101652.48
2019-02-21T02:51:40.693Z,101650.55
2019-02-21T02:52:44.203Z,101652.48
2019-02-21T02:53:47.716Z,101649.73
2019-02-21T02:54:51.209Z,101650.30
2019-02-21T02:55:54.730Z,101647.55
2019-02-21T02:56:58.289Z,101652.48
2019-02-21T02:58:01.790Z,101645.62
2019-02-21T02:59:05.437Z,101643.42
2019-02-21T03:00:11.973Z,101642.34
2019-02-21T03:01:15.482Z,101644.54
2019-02-21T03:02:19.029Z,101646.47
2019-02-21T03:03:22.701Z,101658.02
2019-02-21T03:04:26.418Z,101662.69
2019-02-21T03:05:29.896Z,101665.73
2019-02-21T03:06:33.423Z,101667.92
2019-02-21T03:07:36.930Z,101659.98
2019-02-21T03:08:40.433Z,101664.36
2019-02-21T03:09:43.930Z,101659.42
2019-02-21T03:10:47.431Z,101658.31
2019-02-21T03:11:52.078Z,101659.42
2019-02-21T03:12:55.733Z,101663.54
2019-02-21T03:13:59.262Z,101661.32
2019-02-21T03:15:02.876Z,101662.69
2019-02-21T03:16:06.452Z,101666.81
2019-02-21T03:17:10.010Z,101667.89
2019-02-21T03:18:13.520Z,101667.08
2019-02-21T03:19:17.090Z,101667.34
2019-02-21T03:20:20.600Z,101665.44
2019-02-21T03:21:24.098Z,101663.77
2019-02-21T03:22:27.626Z,101661.58
2019-02-21T03:23:31.113Z,101663.77
2019-02-21T03:24:34.618Z,101663.22
2019-02-21T03:25:38.117Z,101662.40
2019-02-21T03:26:41.687Z,101663.77
2019-02-21T03:27:45.236Z,101662.14
2019-02-21T03:28:48.796Z,101659.95
2019-02-21T03:29:52.364Z,101663.77
2019-02-21T03:30:55.895Z,101665.44
2019-02-21T03:31:59.382Z,101658.83
2019-02-21T03:33:02.958Z,101658.57
2019-02-21T03:34:06.530Z,101658.57
2019-02-21T03:35:10.462Z,101666.81
2019-02-21T03:36:13.951Z,101663.51
2019-02-21T03:37:17.462Z,101664.88
2019-02-21T03:38:21.038Z,101659.65
2019-02-21T03:39:24.601Z,101662.40
2019-02-21T03:40:28.134Z,101660.47
2019-02-21T03:41:31.887Z,101657.72
2019-02-21T03:42:35.394Z,101658.83
2019-02-21T03:43:38.921Z,101657.45
2019-02-21T03:44:42.492Z,101657.20
2019-02-21T03:45:46.026Z,101652.22
2019-02-21T03:46:49.521Z,101654.97
2019-02-21T03:47:53.015Z,101651.41
2019-02-21T03:48:56.533Z,101651.96
2019-02-21T03:50:00.219Z,101650.03
2019-02-21T03:51:03.979Z,101647.31
2019-02-21T03:52:07.484Z,101652.55
2019-02-21T03:53:10.976Z,101650.91
2019-02-21T03:54:14.488Z,101656.41
2019-02-21T03:55:18.051Z,101654.78
2019-02-21T03:56:21.620Z,101650.66
2019-02-21T03:57:25.181Z,101650.39
2019-02-21T03:58:28.829Z,101647.38
2019-02-21T03:59:32.480Z,101652.32
2019-02-21T04:00:36.116Z,101657.26
2019-02-21T04:01:39.684Z,101655.33
2019-02-21T04:02:43.249Z,101654.78
2019-02-21T04:03:46.905Z,101661.05
2019-02-21T04:04:50.462Z,101664.06
2019-02-21T04:05:54.105Z,101661.84
2019-02-21T04:06:57.740Z,101660.47
2019-02-21T04:08:01.321Z,101660.98
2019-02-21T04:09:08.253Z,101653.83
2019-02-21T04:10:11.994Z,101658.99
2019-02-21T04:11:15.513Z,101664.16
2019-02-21T04:12:19.086Z,101661.90
2019-02-21T04:13:22.606Z,101663.23
2019-02-21T04:14:26.117Z,101658.19
2019-02-21T04:15:30.010Z,101662.80
2019-02-21T04:16:33.514Z,101662.72
2019-02-21T04:17:37.096Z,101667.59
2019-02-21T04:18:40.700Z,101662.53
2019-02-21T04:19:44.253Z,101659.95
2019-02-21T04:20:47.835Z,101655.45
2019-02-21T04:21:51.339Z,101662.54
2019-02-21T04:22:54.852Z,101658.89
2019-02-21T04:23:58.433Z,101658.78
2019-02-21T04:25:02.002Z,101658.40
2019-02-21T04:26:05.570Z,101656.41
2019-02-21T04:27:09.138Z,101661.52
2019-02-21T04:28:12.731Z,101653.47
2019-02-21T04:29:16.287Z,101658.58
2019-02-21T04:30:19.836Z,101654.96
2019-02-21T04:31:23.478Z,101659.55
2019-02-21T04:32:26.967Z,101656.95
2019-02-21T04:33:30.560Z,101647.57
2019-02-21T04:34:34.059Z,101645.89
2019-02-21T04:35:37.558Z,101649.16
2019-02-21T04:36:41.143Z,101647.72
2019-02-21T04:37:44.650Z,101645.42
2019-02-21T04:38:48.164Z,101645.94
2019-02-21T04:39:51.691Z,101642.63
2019-02-21T04:40:55.176Z,101644.00
2019-02-21T04:41:58.721Z,101646.70
2019-02-21T04:43:02.225Z,101641.98
2019-02-21T04:44:05.797Z,101638.42
2019-02-21T04:45:09.533Z,101639.19
2019-02-21T04:46:13.037Z,101639.19
2019-02-21T04:47:16.603Z,101633.63
2019-02-21T04:48:20.139Z,101633.27
2019-02-21T04:49:23.732Z,101638.22
2019-02-21T04:50:27.234Z,101630.56
2019-02-21T04:51:30.742Z,101634.34
2019-02-21T04:52:34.258Z,101632.96
2019-02-21T04:53:37.761Z,101629.08
2019-02-21T04:54:41.275Z,101634.59
2019-02-21T04:55:44.840Z,101630.45
2019-02-21T04:56:48.343Z,101625.75
2019-02-21T04:57:51.876Z,101629.87
2019-02-21T04:58:55.463Z,101627.94
2019-02-21T04:59:59.008Z,101624.37
2019-02-21T05:01:02.641Z,101630.39
2019-02-21T05:02:06.163Z,101629.57
2019-02-21T05:03:09.741Z,101626.00
2019-02-21T05:04:13.321Z,101627.94
2019-02-21T05:05:16.869Z,101624.88
2019-02-21T05:06:20.398Z,101627.13
2019-02-21T05:07:23.966Z,101628.17
2019-02-21T05:08:27.468Z,101624.86
2019-02-21T05:09:31.027Z,101627.63
2019-02-21T05:10:34.602Z,101630.92
2019-02-21T05:11:38.086Z,101633.14
2019-02-21T05:12:41.750Z,101637.25
2019-02-21T05:13:45.255Z,101629.57
2019-02-21T05:15:51.316Z,101627.13
2019-02-21T05:16:54.828Z,101627.95
2019-02-21T05:17:58.300Z,101632.70
2019-02-21T05:19:01.899Z,101628.88
2019-02-21T05:20:06.331Z,101630.31
2019-02-21T05:21:09.835Z,101629.55
2019-02-21T05:22:13.430Z,101624.08
2019-02-21T05:23:16.914Z,101625.48
2019-02-21T05:24:20.476Z,101626.91
2019-02-21T05:25:23.994Z,101629.71
2019-02-21T05:26:29.216Z,101626.70
2019-02-21T05:27:33.918Z,101629.71
2019-02-21T05:28:37.425Z,101631.34
2019-02-21T05:29:40.977Z,101635.43
2019-02-21T05:30:44.580Z,101639.00
2019-02-21T05:32:01.577Z,101638.13
2019-02-21T05:33:09.433Z,101637.25
2019-02-21T05:34:14.558Z,101634.44
2019-02-21T05:35:22.443Z,101634.70
2019-02-21T05:36:27.607Z,101636.58
2019-02-21T05:37:32.738Z,101631.13
2019-02-21T05:38:46.942Z,101632.45
2019-02-21T05:39:58.016Z,101628.67
2019-02-21T05:41:04.391Z,101634.44
2019-02-21T05:42:24.760Z,101633.93
2019-02-21T05:43:32.389Z,101634.48
2019-02-21T05:44:37.566Z,101632.34
2019-02-21T05:45:54.290Z,101632.67
2019-02-21T05:47:15.606Z,101634.61
2019-02-21T05:48:32.785Z,101636.50
2019-02-21T05:49:55.921Z,101631.24
2019-02-21T05:51:03.719Z,101630.43
2019-02-21T05:52:14.719Z,101634.29
2019-02-21T05:53:28.285Z,101636.43
2019-02-21T05:54:33.424Z,101637.55
2019-02-21T05:55:38.560Z,101637.50
2019-02-21T05:56:46.392Z,101643.27
2019-02-21T05:58:03.178Z,101637.25
2019-02-21T05:59:24.247Z,101635.05
2019-02-21T06:00:36.922Z,101634.80
2019-02-21T06:01:54.425Z,101633.67
2019-02-21T06:03:15.620Z,101636.17
2019-02-21T06:04:23.368Z,101637.04
2019-02-21T06:05:28.502Z,101636.50
2019-02-21T06:06:45.156Z,101637.37
2019-02-21T06:07:53.009Z,101633.59
2019-02-21T06:09:03.822Z,101636.65
2019-02-21T06:10:11.961Z,101633.69
2019-02-21T06:11:18.232Z,101629.63
2019-02-21T06:12:38.481Z,101639.31
2019-02-21T06:13:59.447Z,101643.23
2019-02-21T06:15:20.581Z,101640.53
2019-02-21T06:16:25.732Z,101644.14
2019-02-21T06:17:34.336Z,101642.53
2019-02-21T06:18:39.585Z,101637.37
2019-02-21T06:19:48.152Z,101640.73
2019-02-21T06:20:57.647Z,101642.71
2019-02-21T06:22:10.511Z,101643.28
2019-02-21T06:23:09.573Z,101643.37
2019-02-21T06:24:14.698Z,101634.64
2019-02-21T06:25:22.483Z,101642.41
2019-02-21T06:26:42.558Z,101641.11
2019-02-21T06:27:47.694Z,101645.30
2019-02-21T06:28:53.681Z,101646.16
2019-02-21T06:30:02.078Z,101651.75
2019-02-21T06:31:07.257Z,101651.02
2019-02-21T06:32:14.237Z,101648.31
2019-02-21T06:33:16.047Z,101642.59
2019-02-21T06:34:19.541Z,101647.63
2019-02-21T06:35:23.121Z,101647.40
2019-02-21T06:36:26.648Z,101655.14
2019-02-21T06:37:30.155Z,101662.34
2019-02-21T06:38:33.929Z,101666.25
2019-02-21T06:39:37.490Z,101664.66
2019-02-21T06:40:40.981Z,101664.92
2019-02-21T06:41:44.567Z,101663.02
2019-02-21T06:42:48.058Z,101667.15
2019-02-21T06:43:52.715Z,101666.89
2019-02-21T06:44:56.519Z,101661.69
2019-02-21T06:46:00.045Z,101667.44
2019-02-21T06:47:03.617Z,101670.19
2019-02-21T06:48:07.132Z,101667.74
2019-02-21T06:49:10.715Z,101675.17
2019-02-21T06:50:14.613Z,101676.28
2019-02-21T06:51:18.241Z,101679.85
2019-02-21T06:52:21.749Z,101679.03
2019-02-21T06:53:25.234Z,101680.97
2019-02-21T06:54:28.760Z,101684.27
2019-02-21T06:55:32.320Z,101686.76
2019-02-21T06:56:35.818Z,101686.76
2019-02-21T06:57:39.365Z,101682.38
2019-02-21T06:58:42.848Z,101686.23
2019-02-21T06:59:46.372Z,101683.48
2019-02-21T07:00:49.878Z,101685.72
2019-02-21T07:01:53.358Z,101685.45
2019-02-21T07:02:56.964Z,101691.51
2019-02-21T07:04:01.956Z,101690.13
2019-02-21T07:05:05.714Z,101690.40
2019-02-21T07:06:09.310Z,101688.20
2019-02-21T07:07:12.788Z,101687.13
2019-02-21T07:08:16.369Z,101690.98
2019-02-21T07:09:19.918Z,101694.30
2019-02-21T07:10:23.461Z,101688.27
2019-02-21T07:11:26.990Z,101697.89
2019-02-21T07:12:30.469Z,101690.77
2019-02-21T07:13:34.078Z,101691.91
2019-02-21T07:14:37.613Z,101688.30
2019-02-21T07:15:41.109Z,101691.34
2019-02-21T07:16:44.626Z,101696.59
2019-02-21T07:17:49.566Z,101693.02
2019-02-21T07:18:53.314Z,101698.81
2019-02-21T07:19:56.830Z,101696.62
2019-02-21T07:21:00.315Z,101696.88
2019-02-21T07:22:06.182Z,101695.24
2019-02-21T07:23:11.249Z,101699.39
2019-02-21T07:24:14.369Z,101699.66
2019-02-21T07:25:32.531Z,101705.16
2019-02-21T07:26:36.122Z,101699.13
2019-02-21T07:27:39.611Z,101700.25
2019-02-21T07:28:43.178Z,101699.17
2019-02-21T07:29:46.694Z,101703.28
2019-02-21T07:30:50.863Z,101704.95
2019-02-21T07:31:54.375Z,101706.33
2019-02-21T07:32:57.864Z,101708.81
2019-02-21T07:34:01.846Z,101707.14
2019-02-21T07:35:06.125Z,101712.38
2019-02-21T07:36:11.022Z,101710.45
2019-02-21T07:37:18.538Z,101707.70
2019-02-21T07:38:19.823Z,101714.31
2019-02-21T07:39:23.413Z,101714.31
2019-02-21T07:40:26.970Z,101709.66
2019-02-21T07:41:30.527Z,101713.78
2019-02-21T07:42:34.101Z,101717.64
2019-02-21T07:43:37.581Z,101721.77
2019-02-21T07:44:41.182Z,101720.12
2019-02-21T07:45:44.727Z,101722.61
2019-02-21T07:46:48.231Z,101721.23
2019-02-21T07:47:51.806Z,101717.41
2019-02-21T07:48:55.328Z,101711.65
2019-02-21T07:49:58.847Z,101716.06
2019-02-21T07:51:02.425Z,101717.17
2019-02-21T07:52:05.913Z,101716.06
2019-02-21T07:53:09.388Z,101714.69
2019-02-21T07:54:12.896Z,101714.98
2019-02-21T07:55:16.420Z,101714.16
2019-02-21T07:56:19.909Z,101721.03
2019-02-21T07:57:23.425Z,101718.02
2019-02-21T07:58:26.968Z,101727.92
2019-02-21T07:59:30.492Z,101727.63
2019-02-21T08:00:34.080Z,101725.44
2019-02-21T08:01:37.670Z,101722.43
2019-02-21T08:02:41.220Z,101727.37
2019-02-21T08:03:48.098Z,101722.43
2019-02-21T08:04:49.943Z,101724.64
2019-02-21T08:05:53.469Z,101724.12
2019-02-21T08:06:56.958Z,101726.58
2019-02-21T08:08:00.461Z,101725.49
2019-02-21T08:09:05.882Z,101735.37
2019-02-21T08:10:11.486Z,101732.36
2019-02-21T08:11:15.074Z,101732.91
2019-02-21T08:12:18.636Z,101738.96
2019-02-21T08:13:22.304Z,101735.95
2019-02-21T08:14:25.831Z,101730.45
2019-02-21T08:15:29.304Z,101732.13
2019-02-21T08:16:32.839Z,101736.53
2019-02-21T08:17:36.325Z,101734.63
2019-02-21T08:18:39.822Z,101739.83
2019-02-21T08:19:43.346Z,101740.66
2019-02-21T08:20:46.890Z,101740.39
2019-02-21T08:21:50.577Z,101737.38
2019-02-21T08:22:54.073Z,101739.30
2019-02-21T08:23:59.243Z,101737.38
2019-02-21T08:25:02.819Z,101740.94
2019-02-21T08:26:06.444Z,101742.05
2019-02-21T08:27:10.033Z,101739.85
2019-02-21T08:28:13.612Z,101746.72
2019-02-21T08:29:17.108Z,101742.89
2019-02-21T08:30:20.734Z,101742.89
2019-02-21T08:31:24.219Z,101747.01
2019-02-21T08:32:29.371Z,101748.38
2019-02-21T08:33:34.484Z,101750.31
2019-02-21T08:34:42.109Z,101739.88
2019-02-21T08:35:45.691Z,101744.81
2019-02-21T08:36:49.182Z,101744.55
2019-02-21T08:37:52.697Z,101746.74
2019-02-21T08:38:56.197Z,101745.37
2019-02-21T08:39:59.702Z,101746.74
2019-02-21T08:41:03.186Z,101755.25
2019-02-21T08:42:06.688Z,101746.48
2019-02-21T08:43:10.220Z,101749.23
2019-02-21T08:44:13.710Z,101748.67
2019-02-21T08:45:17.911Z,101749.78
2019-02-21T08:46:21.476Z,101753.34
2019-02-21T08:47:24.979Z,101755.83
2019-02-21T08:48:28.563Z,101755.83
2019-02-21T08:49:32.044Z,101763.80
2019-02-21T08:50:35.606Z,101753.38
2019-02-21T08:51:39.238Z,101762.16
2019-02-21T08:52:42.734Z,101764.91
2019-02-21T08:53:46.263Z,101770.95
2019-02-21T08:54:59.807Z,101764.38
2019-02-21T08:55:56.060Z,101768.76
2019-02-21T08:56:59.621Z,101772.61
2019-02-21T08:58:03.122Z,101769.60
2019-02-21T08:59:06.717Z,101773.72
2019-02-21T09:00:13.327Z,101773.75
2019-02-21T09:01:16.846Z,101780.32
2019-02-21T09:02:20.424Z,101775.94
2019-02-21T09:03:23.923Z,101775.11
2019-02-21T09:04:28.046Z,101781.43
2019-02-21T09:05:31.673Z,101780.86
2019-02-21T09:06:35.165Z,101779.49
2019-02-21T09:07:38.732Z,101778.12
2019-02-21T09:08:42.238Z,101777.85
2019-02-21T09:09:45.820Z,101776.77
2019-02-21T09:10:49.449Z,101782.53
2019-02-21T09:11:53.868Z,101775.95
2019-02-21T09:12:57.653Z,101774.58
2019-02-21T09:14:01.142Z,101774.31
2019-02-21T09:15:06.815Z,101783.10
2019-02-21T09:16:10.389Z,101783.10
2019-02-21T09:17:13.981Z,101781.75
2019-02-21T09:18:17.622Z,101780.38
2019-02-21T09:19:21.174Z,101777.92
2019-02-21T09:20:24.843Z,101784.20
2019-02-21T09:21:28.340Z,101778.73
2019-02-21T09:22:31.903Z,101785.60
2019-02-21T09:23:35.404Z,101790.56
2019-02-21T09:24:42.288Z,101785.07
2019-02-21T09:25:44.130Z,101785.36
2019-02-21T09:26:47.633Z,101783.70
2019-02-21T09:27:51.117Z,101788.66
2019-02-21T09:28:54.650Z,101784.54
2019-02-21T09:29:58.261Z,101793.33
2019-02-21T09:31:01.750Z,101781.52
2019-02-21T09:32:06.952Z,101784.80
2019-02-21T09:33:17.475Z,101794.95
2019-02-21T09:34:21.205Z,101794.95
2019-02-21T09:35:21.126Z,101796.34
2019-02-21T09:36:24.627Z,101791.67
2019-02-21T09:37:28.112Z,101797.16
2019-02-21T09:38:31.675Z,101794.16
2019-02-21T09:39:35.192Z,101795.27
2019-02-21T09:40:38.725Z,101794.70
2019-02-21T09:41:42.205Z,101799.93
2019-02-21T09:42:45.698Z,101800.48
2019-02-21T09:43:51.125Z,101800.48
2019-02-21T09:44:54.711Z,101805.16
2019-02-21T09:45:58.259Z,101804.60
2019-02-21T09:47:01.755Z,101799.40
2019-02-21T09:48:05.260Z,101798.31
2019-02-21T09:49:08.741Z,101795.56
2019-02-21T09:50:12.303Z,101795.02
2019-02-21T09:51:18.183Z,101797.49
2019-02-21T09:52:21.041Z,101799.42
2019-02-21T09:53:24.519Z,101791.47
2019-02-21T09:54:28.023Z,101802.16
2019-02-21T09:55:31.520Z,101804.92
2019-02-21T09:56:35.047Z,101810.13
2019-02-21T09:57:38.676Z,101813.98
2019-02-21T09:58:42.168Z,101816.98
2019-02-21T09:59:45.738Z,101818.36
2019-02-21T10:00:49.368Z,101815.62
2019-02-21T10:01:52.896Z,101819.47
2019-02-21T10:02:56.828Z,101816.45
2019-02-21T10:04:00.419Z,101820.84
2019-02-21T10:05:05.642Z,101810.70
2019-02-21T10:06:09.401Z,101813.16
2019-02-21T10:07:12.915Z,101809.33
2019-02-21T10:08:16.489Z,101808.51
2019-02-21T10:09:19.981Z,101808.77
2019-02-21T10:10:23.549Z,101802.47
2019-02-21T10:11:27.144Z,101807.13
2019-02-21T10:12:30.639Z,101806.31
2019-02-21T10:13:34.118Z,101809.06
2019-02-21T10:14:37.705Z,101811.50
2019-02-21T10:15:41.760Z,101808.20
2019-02-21T10:16:45.348Z,101815.63
2019-02-21T10:17:50.842Z,101820.56
2019-02-21T10:18:54.083Z,101819.19
2019-02-21T10:19:57.731Z,101819.19
2019-02-21T10:21:01.346Z,101826.90
2019-02-21T10:22:04.990Z,101810.13
2019-02-21T10:23:08.513Z,101819.19
2019-02-21T10:24:12.012Z,101818.66
2019-02-21T10:25:24.445Z,101815.37
2019-02-21T10:26:28.089Z,101820.56
2019-02-21T10:27:31.562Z,101811.50
2019-02-21T10:28:35.092Z,101807.69
2019-02-21T10:29:38.584Z,101812.87
2019-02-21T10:30:42.200Z,101819.48
2019-02-21T10:31:45.710Z,101826.34
2019-02-21T10:32:49.261Z,101826.90
2019-02-21T10:33:52.795Z,101824.16
2019-02-21T10:34:56.297Z,101821.67
2019-02-21T10:36:00.547Z,101817.30
2019-02-21T10:37:04.235Z,101811.23
2019-02-21T10:38:07.735Z,101810.13
2019-02-21T10:39:11.671Z,101822.48
2019-02-21T10:40:18.206Z,101811.23
2019-02-21T10:41:21.684Z,101817.30
2019-02-21T10:42:25.264Z,101801.36
2019-02-21T10:43:28.774Z,101812.34
2019-02-21T10:44:32.304Z,101810.97
2019-02-21T10:45:47.137Z,101816.19
2019-02-21T10:46:40.999Z,101814.81
2019-02-21T10:47:44.617Z,101809.59
2019-02-21T10:48:48.173Z,101812.08
2019-02-21T10:49:51.647Z,101816.45
2019-02-21T10:50:55.216Z,101816.75
2019-02-21T10:51:58.722Z,101821.68
2019-02-21T10:53:02.275Z,101815.66
2019-02-21T10:54:05.869Z,101815.11
2019-02-21T10:55:09.593Z,101816.50
2019-02-21T10:56:13.087Z,101814.02
2019-02-21T10:57:16.587Z,101805.52
2019-02-21T10:58:20.061Z,101806.63
2019-02-21T10:59:23.653Z,101797.30
2019-02-21T11:00:29.379Z,101798.12
2019-02-21T11:01:32.920Z,101803.34
2019-02-21T11:02:36.557Z,101796.22
2019-02-21T11:03:40.146Z,101796.22
2019-02-21T11:04:54.112Z,101786.88
2019-02-21T11:05:48.996Z,101783.05
2019-02-21T11:06:52.716Z,101783.05
2019-02-21T11:07:56.304Z,101790.73
2019-02-21T11:08:59.808Z,101788.53
2019-02-21T11:10:03.776Z,101790.17
2019-02-21T11:11:07.430Z,101789.89
2019-02-21T11:12:10.911Z,101787.14
2019-02-21T11:13:14.403Z,101786.33
2019-02-21T11:14:17.907Z,101780.55
2019-02-21T11:15:23.558Z,101787.69
2019-02-21T11:16:27.132Z,101785.48
2019-02-21T11:17:30.657Z,101783.56
2019-02-21T11:18:34.184Z,101782.74
2019-02-21T11:19:37.709Z,101780.82
2019-02-21T11:20:41.335Z,101782.19
2019-02-21T11:21:44.861Z,101782.19
2019-02-21T11:22:48.656Z,101784.94
2019-02-21T11:23:52.285Z,101777.81
2019-02-21T11:24:55.926Z,101794.26
2019-02-21T11:25:59.513Z,101787.95
2019-02-21T11:27:03.004Z,101793.44
2019-02-21T11:28:06.511Z,101792.33
2019-02-21T11:29:10.021Z,101792.87
2019-02-21T11:30:16.088Z,101791.49
2019-02-21T11:31:19.693Z,101780.80
2019-02-21T11:32:23.189Z,101782.73
2019-02-21T11:33:26.756Z,101782.99
2019-02-21T11:34:30.266Z,101776.97
2019-02-21T11:35:33.850Z,101775.05
2019-02-21T11:36:37.348Z,101775.87
2019-02-21T11:37:45.621Z,101769.84
2019-02-21T11:38:46.079Z,101767.10
2019-02-21T11:39:49.579Z,101771.22
2019-02-21T11:40:53.164Z,101766.84
2019-02-21T11:41:56.758Z,101775.06
2019-02-21T11:43:02.447Z,101764.09
2019-02-21T11:44:05.712Z,101762.45
2019-02-21T11:45:15.107Z,101767.12
2019-02-21T11:46:18.632Z,101767.94
2019-02-21T11:47:22.189Z,101772.05
2019-02-21T11:48:25.835Z,101768.22
2019-02-21T11:49:29.386Z,101768.49
2019-02-21T11:50:33.031Z,101768.22
2019-02-21T11:51:36.547Z,101778.65
2019-02-21T11:52:40.045Z,101774.53
2019-02-21T11:53:43.702Z,101777.28
2019-02-21T11:54:47.253Z,101780.28
2019-02-21T11:55:50.753Z,101775.91
2019-02-21T11:56:54.346Z,101775.91
2019-02-21T11:57:57.918Z,101777.56
2019-02-21T11:59:01.416Z,101771.52
2019-02-21T12:00:10.977Z,101769.61
2019-02-21T12:01:16.072Z,101778.38
2019-02-21T12:02:19.685Z,101777.01
2019-02-21T12:03:23.167Z,101775.64
2019-02-21T12:04:26.744Z,101776.74
2019-02-21T12:05:31.757Z,101785.51
2019-02-21T12:06:35.716Z,101776.19
2019-02-21T12:07:39.467Z,101785.23
2019-02-21T12:08:42.969Z,101782.77
2019-02-21T12:09:46.463Z,101778.94
2019-02-21T12:10:50.951Z,101782.50
2019-02-21T12:11:54.670Z,101779.48
2019-02-21T12:12:58.202Z,101785.52
2019-02-21T12:14:01.685Z,101784.70
2019-02-21T12:15:07.742Z,101788.52